sensor_id;sensor_type;location;lat;lon;timestamp;P1;durP1;ratioP1;P2;durP2;ratioP2
32292;SDS011;43233;48.608;8.838;2022-12-26T00:00:55;5.20;;;4.70;;
32292;SDS011;43233;48.608;8.838;2022-12-26T00:03:23;5.37;;;4.43;;
32292;SDS011;43233;48.608;8.838;2022-12-26T00:05:49;5.37;;;4.43;;
32292;SDS011;43233;48.608;8.838;2022-12-26T00:08:15;4.67;;;4.23;;
32292;SDS011;43233;48.608;8.838;2022-12-26T00:10:41;5.37;;;4.87;;
32292;SDS011;43233;48.608;8.838;2022-12-26T00:13:06;4.17;;;3.87;;
32292;SDS011;43233;48.608;8.838;2022-12-26T00:15:32;4.47;;;4.07;;
32292;SDS011;43233;48.608;8.838;2022-12-26T00:17:58;4.50;;;4.10;;
32292;SDS011;43233;48.608;8.838;2022-12-26T00:20:23;8.43;;;4.83;;
32292;SDS011;43233;48.608;8.838;2022-12-26T00:22:49;4.43;;;4.03;;
32292;SDS011;43233;48.608;8.838;2022-12-26T00:25:14;4.37;;;3.97;;
32292;SDS011;43233;48.608;8.838;2022-12-26T00:27:40;5.70;;;4.27;;
32292;SDS011;43233;48.608;8.838;2022-12-26T00:30:06;4.60;;;4.20;;
32292;SDS011;43233;48.608;8.838;2022-12-26T00:32:33;4.00;;;3.60;;
32292;SDS011;43233;48.608;8.838;2022-12-26T00:34:58;3.83;;;3.57;;
32292;SDS011;43233;48.608;8.838;2022-12-26T00:37:24;4.43;;;4.03;;
32292;SDS011;43233;48.608;8.838;2022-12-26T00:39:49;5.77;;;4.43;;
32292;SDS011;43233;48.608;8.838;2022-12-26T00:42:15;4.80;;;4.30;;
32292;SDS011;43233;48.608;8.838;2022-12-26T00:44:41;4.83;;;4.40;;
32292;SDS011;43233;48.608;8.838;2022-12-26T00:47:06;5.57;;;5.07;;
32292;SDS011;43233;48.608;8.838;2022-12-26T00:49:32;6.17;;;5.57;;
32292;SDS011;43233;48.608;8.838;2022-12-26T00:51:57;4.43;;;4.03;;
32292;SDS011;43233;48.608;8.838;2022-12-26T00:54:23;4.60;;;4.20;;
32292;SDS011;43233;48.608;8.838;2022-12-26T00:56:49;12.10;;;4.97;;
32292;SDS011;43233;48.608;8.838;2022-12-26T00:59:14;4.90;;;4.50;;
32292;SDS011;43233;48.608;8.838;2022-12-26T01:01:40;5.77;;;5.07;;
32292;SDS011;43233;48.608;8.838;2022-12-26T01:04:06;4.70;;;4.23;;
32292;SDS011;43233;48.608;8.838;2022-12-26T01:06:31;7.10;;;4.40;;
32292;SDS011;43233;48.608;8.838;2022-12-26T01:08:57;6.00;;;4.87;;
32292;SDS011;43233;48.608;8.838;2022-12-26T01:11:23;7.07;;;4.50;;
32292;SDS011;43233;48.608;8.838;2022-12-26T01:14:05;4.33;;;3.93;;
32292;SDS011;43233;48.608;8.838;2022-12-26T01:16:36;5.27;;;4.77;;
32292;SDS011;43233;48.608;8.838;2022-12-26T01:19:04;4.93;;;4.53;;
32292;SDS011;43233;48.608;8.838;2022-12-26T01:21:30;5.80;;;5.20;;
32292;SDS011;43233;48.608;8.838;2022-12-26T01:23:55;5.30;;;4.80;;
32292;SDS011;43233;48.608;8.838;2022-12-26T01:26:21;6.30;;;5.67;;
32292;SDS011;43233;48.608;8.838;2022-12-26T01:28:47;5.43;;;4.93;;
32292;SDS011;43233;48.608;8.838;2022-12-26T01:31:13;4.40;;;4.00;;
32292;SDS011;43233;48.608;8.838;2022-12-26T01:33:39;5.60;;;4.77;;
32292;SDS011;43233;48.608;8.838;2022-12-26T01:36:04;4.50;;;4.10;;
32292;SDS011;43233;48.608;8.838;2022-12-26T01:38:30;15.77;;;4.93;;
32292;SDS011;43233;48.608;8.838;2022-12-26T01:40:56;6.40;;;5.70;;
32292;SDS011;43233;48.608;8.838;2022-12-26T01:46:23;6.07;;;5.30;;
32292;SDS011;43233;48.608;8.838;2022-12-26T01:48:58;5.20;;;4.80;;
32292;SDS011;43233;48.608;8.838;2022-12-26T01:51:31;5.73;;;5.07;;
32292;SDS011;43233;48.608;8.838;2022-12-26T01:54:00;14.50;;;4.47;;
32292;SDS011;43233;48.608;8.838;2022-12-26T01:56:30;5.50;;;5.00;;
32292;SDS011;43233;48.608;8.838;2022-12-26T01:59:04;5.00;;;4.50;;
32292;SDS011;43233;48.608;8.838;2022-12-26T02:01:34;4.63;;;4.10;;
32292;SDS011;43233;48.608;8.838;2022-12-26T02:04:04;4.90;;;4.10;;
32292;SDS011;43233;48.608;8.838;2022-12-26T02:06:52;5.27;;;4.77;;
32292;SDS011;43233;48.608;8.838;2022-12-26T02:09:18;5.50;;;4.80;;
32292;SDS011;43233;48.608;8.838;2022-12-26T02:11:46;6.43;;;4.40;;
32292;SDS011;43233;48.608;8.838;2022-12-26T02:14:17;6.20;;;5.40;;
32292;SDS011;43233;48.608;8.838;2022-12-26T02:16:43;4.97;;;4.47;;
32292;SDS011;43233;48.608;8.838;2022-12-26T02:19:59;5.57;;;4.43;;
32292;SDS011;43233;48.608;8.838;2022-12-26T02:27:57;4.60;;;4.20;;
32292;SDS011;43233;48.608;8.838;2022-12-26T02:30:30;4.87;;;4.37;;
32292;SDS011;43233;48.608;8.838;2022-12-26T02:33:22;5.60;;;4.10;;
32292;SDS011;43233;48.608;8.838;2022-12-26T02:41:44;4.30;;;3.70;;
32292;SDS011;43233;48.608;8.838;2022-12-26T02:47:22;4.47;;;4.07;;
32292;SDS011;43233;48.608;8.838;2022-12-26T02:50:11;4.70;;;4.23;;
32292;SDS011;43233;48.608;8.838;2022-12-26T02:53:08;4.30;;;4.00;;
32292;SDS011;43233;48.608;8.838;2022-12-26T02:56:09;4.50;;;4.10;;
32292;SDS011;43233;48.608;8.838;2022-12-26T02:59:14;4.70;;;4.13;;
32292;SDS011;43233;48.608;8.838;2022-12-26T03:02:04;4.17;;;3.77;;
32292;SDS011;43233;48.608;8.838;2022-12-26T03:04:54;6.37;;;4.53;;
32292;SDS011;43233;48.608;8.838;2022-12-26T03:07:40;4.67;;;4.30;;
32292;SDS011;43233;48.608;8.838;2022-12-26T03:10:29;5.37;;;4.60;;
32292;SDS011;43233;48.608;8.838;2022-12-26T03:13:19;5.77;;;3.80;;
32292;SDS011;43233;48.608;8.838;2022-12-26T03:15:52;4.57;;;4.17;;
32292;SDS011;43233;48.608;8.838;2022-12-26T03:18:46;3.53;;;3.30;;
32292;SDS011;43233;48.608;8.838;2022-12-26T03:21:24;5.17;;;4.37;;
32292;SDS011;43233;48.608;8.838;2022-12-26T03:23:53;3.97;;;3.57;;
32292;SDS011;43233;48.608;8.838;2022-12-26T03:26:22;4.27;;;3.87;;
32292;SDS011;43233;48.608;8.838;2022-12-26T03:29:04;4.97;;;4.37;;
32292;SDS011;43233;48.608;8.838;2022-12-26T03:31:51;3.90;;;3.60;;
32292;SDS011;43233;48.608;8.838;2022-12-26T03:34:17;3.97;;;3.67;;
32292;SDS011;43233;48.608;8.838;2022-12-26T03:42:27;4.67;;;3.57;;
32292;SDS011;43233;48.608;8.838;2022-12-26T03:45:35;5.83;;;3.70;;
32292;SDS011;43233;48.608;8.838;2022-12-26T03:54:36;4.10;;;3.70;;
32292;SDS011;43233;48.608;8.838;2022-12-26T03:57:50;3.70;;;3.40;;
32292;SDS011;43233;48.608;8.838;2022-12-26T04:00:41;4.50;;;4.10;;
32292;SDS011;43233;48.608;8.838;2022-12-26T04:03:28;3.87;;;3.57;;
32292;SDS011;43233;48.608;8.838;2022-12-26T04:06:37;3.97;;;3.53;;
32292;SDS011;43233;48.608;8.838;2022-12-26T04:09:38;4.20;;;3.90;;
32292;SDS011;43233;48.608;8.838;2022-12-26T04:12:28;3.33;;;3.13;;
32292;SDS011;43233;48.608;8.838;2022-12-26T04:15:24;5.73;;;5.17;;
32292;SDS011;43233;48.608;8.838;2022-12-26T04:18:18;5.37;;;4.20;;
32292;SDS011;43233;48.608;8.838;2022-12-26T04:24:32;4.10;;;3.73;;
32292;SDS011;43233;48.608;8.838;2022-12-26T04:27:21;4.57;;;4.07;;
32292;SDS011;43233;48.608;8.838;2022-12-26T04:30:11;3.53;;;3.23;;
32292;SDS011;43233;48.608;8.838;2022-12-26T04:32:56;3.30;;;3.10;;
32292;SDS011;43233;48.608;8.838;2022-12-26T04:35:49;3.60;;;3.30;;
32292;SDS011;43233;48.608;8.838;2022-12-26T04:38:39;3.50;;;3.20;;
32292;SDS011;43233;48.608;8.838;2022-12-26T04:41:26;3.77;;;3.47;;
32292;SDS011;43233;48.608;8.838;2022-12-26T04:44:13;5.00;;;3.70;;
32292;SDS011;43233;48.608;8.838;2022-12-26T04:46:42;5.53;;;3.40;;
32292;SDS011;43233;48.608;8.838;2022-12-26T04:49:10;3.80;;;3.00;;
32292;SDS011;43233;48.608;8.838;2022-12-26T04:51:57;5.23;;;4.07;;
32292;SDS011;43233;48.608;8.838;2022-12-26T04:54:25;5.30;;;4.17;;
32292;SDS011;43233;48.608;8.838;2022-12-26T04:56:51;7.53;;;3.67;;
32292;SDS011;43233;48.608;8.838;2022-12-26T04:59:17;4.10;;;3.47;;
32292;SDS011;43233;48.608;8.838;2022-12-26T05:01:43;5.00;;;3.07;;
32292;SDS011;43233;48.608;8.838;2022-12-26T05:04:27;3.70;;;3.40;;
32292;SDS011;43233;48.608;8.838;2022-12-26T05:07:31;4.30;;;3.90;;
32292;SDS011;43233;48.608;8.838;2022-12-26T05:10:20;3.80;;;3.50;;
32292;SDS011;43233;48.608;8.838;2022-12-26T05:12:50;4.20;;;3.80;;
32292;SDS011;43233;48.608;8.838;2022-12-26T05:15:17;3.70;;;3.40;;
32292;SDS011;43233;48.608;8.838;2022-12-26T05:17:43;3.97;;;3.57;;
32292;SDS011;43233;48.608;8.838;2022-12-26T05:20:27;3.80;;;3.40;;
32292;SDS011;43233;48.608;8.838;2022-12-26T05:23:18;4.03;;;3.57;;
32292;SDS011;43233;48.608;8.838;2022-12-26T05:26:14;4.30;;;3.90;;
32292;SDS011;43233;48.608;8.838;2022-12-26T05:29:01;4.13;;;3.53;;
32292;SDS011;43233;48.608;8.838;2022-12-26T05:31:28;4.00;;;3.60;;
32292;SDS011;43233;48.608;8.838;2022-12-26T05:33:54;3.83;;;3.47;;
32292;SDS011;43233;48.608;8.838;2022-12-26T05:36:38;3.50;;;3.20;;
32292;SDS011;43233;48.608;8.838;2022-12-26T05:39:06;3.40;;;3.10;;
32292;SDS011;43233;48.608;8.838;2022-12-26T05:41:33;3.33;;;3.10;;
32292;SDS011;43233;48.608;8.838;2022-12-26T05:43:59;3.70;;;3.40;;
32292;SDS011;43233;48.608;8.838;2022-12-26T05:46:24;5.47;;;3.63;;
32292;SDS011;43233;48.608;8.838;2022-12-26T05:48:50;4.20;;;3.17;;
32292;SDS011;43233;48.608;8.838;2022-12-26T05:51:16;3.67;;;3.37;;
32292;SDS011;43233;48.608;8.838;2022-12-26T05:53:42;3.30;;;3.00;;
32292;SDS011;43233;48.608;8.838;2022-12-26T05:56:12;5.30;;;3.20;;
32292;SDS011;43233;48.608;8.838;2022-12-26T05:58:39;4.50;;;3.50;;
32292;SDS011;43233;48.608;8.838;2022-12-26T06:01:07;3.77;;;3.40;;
32292;SDS011;43233;48.608;8.838;2022-12-26T06:03:37;4.07;;;3.37;;
32292;SDS011;43233;48.608;8.838;2022-12-26T06:06:04;4.03;;;3.10;;
32292;SDS011;43233;48.608;8.838;2022-12-26T06:08:30;3.57;;;3.30;;
32292;SDS011;43233;48.608;8.838;2022-12-26T06:10:56;3.50;;;3.20;;
32292;SDS011;43233;48.608;8.838;2022-12-26T06:13:22;4.13;;;3.73;;
32292;SDS011;43233;48.608;8.838;2022-12-26T06:15:48;3.40;;;3.20;;
32292;SDS011;43233;48.608;8.838;2022-12-26T06:18:13;3.43;;;3.23;;
32292;SDS011;43233;48.608;8.838;2022-12-26T06:20:39;3.70;;;3.33;;
32292;SDS011;43233;48.608;8.838;2022-12-26T06:23:05;5.57;;;3.40;;
32292;SDS011;43233;48.608;8.838;2022-12-26T06:25:31;3.20;;;2.90;;
32292;SDS011;43233;48.608;8.838;2022-12-26T06:27:57;3.17;;;2.97;;
32292;SDS011;43233;48.608;8.838;2022-12-26T06:30:22;3.33;;;3.03;;
32292;SDS011;43233;48.608;8.838;2022-12-26T06:32:48;2.90;;;2.70;;
32292;SDS011;43233;48.608;8.838;2022-12-26T06:35:14;5.43;;;3.70;;
32292;SDS011;43233;48.608;8.838;2022-12-26T06:37:39;4.43;;;3.77;;
32292;SDS011;43233;48.608;8.838;2022-12-26T06:40:05;5.40;;;4.10;;
32292;SDS011;43233;48.608;8.838;2022-12-26T06:42:31;5.57;;;4.17;;
32292;SDS011;43233;48.608;8.838;2022-12-26T06:44:57;4.63;;;4.23;;
32292;SDS011;43233;48.608;8.838;2022-12-26T06:47:22;4.60;;;4.00;;
32292;SDS011;43233;48.608;8.838;2022-12-26T06:49:48;3.10;;;2.90;;
32292;SDS011;43233;48.608;8.838;2022-12-26T06:52:14;3.27;;;3.07;;
32292;SDS011;43233;48.608;8.838;2022-12-26T06:54:39;3.60;;;3.40;;
32292;SDS011;43233;48.608;8.838;2022-12-26T06:57:05;7.40;;;4.40;;
32292;SDS011;43233;48.608;8.838;2022-12-26T06:59:31;5.27;;;4.23;;
32292;SDS011;43233;48.608;8.838;2022-12-26T07:01:56;4.73;;;4.27;;
32292;SDS011;43233;48.608;8.838;2022-12-26T07:04:22;4.73;;;3.40;;
32292;SDS011;43233;48.608;8.838;2022-12-26T07:06:48;4.33;;;3.93;;
32292;SDS011;43233;48.608;8.838;2022-12-26T07:09:15;5.10;;;4.20;;
32292;SDS011;43233;48.608;8.838;2022-12-26T07:11:44;4.97;;;4.07;;
32292;SDS011;43233;48.608;8.838;2022-12-26T07:14:11;7.00;;;4.57;;
32292;SDS011;43233;48.608;8.838;2022-12-26T07:16:37;4.63;;;3.50;;
32292;SDS011;43233;48.608;8.838;2022-12-26T07:19:05;4.47;;;4.03;;
32292;SDS011;43233;48.608;8.838;2022-12-26T07:21:31;4.00;;;3.50;;
32292;SDS011;43233;48.608;8.838;2022-12-26T07:23:57;5.23;;;4.47;;
32292;SDS011;43233;48.608;8.838;2022-12-26T07:26:23;4.07;;;3.73;;
32292;SDS011;43233;48.608;8.838;2022-12-26T07:28:53;4.70;;;3.97;;
32292;SDS011;43233;48.608;8.838;2022-12-26T07:31:20;4.10;;;3.70;;
32292;SDS011;43233;48.608;8.838;2022-12-26T07:33:47;4.03;;;3.73;;
32292;SDS011;43233;48.608;8.838;2022-12-26T07:36:13;8.73;;;4.00;;
32292;SDS011;43233;48.608;8.838;2022-12-26T07:38:39;3.80;;;3.50;;
32292;SDS011;43233;48.608;8.838;2022-12-26T07:41:05;4.10;;;3.53;;
32292;SDS011;43233;48.608;8.838;2022-12-26T07:43:49;3.50;;;3.23;;
32292;SDS011;43233;48.608;8.838;2022-12-26T07:46:15;5.40;;;4.47;;
32292;SDS011;43233;48.608;8.838;2022-12-26T07:48:41;4.50;;;4.10;;
32292;SDS011;43233;48.608;8.838;2022-12-26T07:51:06;4.50;;;3.63;;
32292;SDS011;43233;48.608;8.838;2022-12-26T07:53:32;4.00;;;3.70;;
32292;SDS011;43233;48.608;8.838;2022-12-26T07:55:58;6.40;;;4.30;;
32292;SDS011;43233;48.608;8.838;2022-12-26T07:58:24;3.70;;;3.40;;
32292;SDS011;43233;48.608;8.838;2022-12-26T08:00:49;3.83;;;3.53;;
32292;SDS011;43233;48.608;8.838;2022-12-26T08:03:15;3.77;;;3.47;;
32292;SDS011;43233;48.608;8.838;2022-12-26T08:05:47;4.70;;;3.80;;
32292;SDS011;43233;48.608;8.838;2022-12-26T08:08:13;4.70;;;3.40;;
32292;SDS011;43233;48.608;8.838;2022-12-26T08:10:39;3.20;;;3.00;;
32292;SDS011;43233;48.608;8.838;2022-12-26T08:13:05;4.30;;;3.90;;
32292;SDS011;43233;48.608;8.838;2022-12-26T08:15:31;8.40;;;4.67;;
32292;SDS011;43233;48.608;8.838;2022-12-26T08:17:58;9.13;;;4.60;;
32292;SDS011;43233;48.608;8.838;2022-12-26T08:20:23;10.83;;;4.10;;
32292;SDS011;43233;48.608;8.838;2022-12-26T08:22:49;4.33;;;4.00;;
32292;SDS011;43233;48.608;8.838;2022-12-26T08:25:15;4.73;;;4.20;;
32292;SDS011;43233;48.608;8.838;2022-12-26T08:27:40;4.57;;;3.83;;
32292;SDS011;43233;48.608;8.838;2022-12-26T08:30:07;6.27;;;4.00;;
32292;SDS011;43233;48.608;8.838;2022-12-26T08:32:33;8.97;;;4.87;;
32292;SDS011;43233;48.608;8.838;2022-12-26T08:34:59;5.07;;;4.33;;
32292;SDS011;43233;48.608;8.838;2022-12-26T08:37:25;5.03;;;4.30;;
32292;SDS011;43233;48.608;8.838;2022-12-26T08:39:51;5.40;;;4.90;;
32292;SDS011;43233;48.608;8.838;2022-12-26T08:42:18;5.00;;;4.00;;
32292;SDS011;43233;48.608;8.838;2022-12-26T08:44:44;6.83;;;4.47;;
32292;SDS011;43233;48.608;8.838;2022-12-26T08:47:10;4.87;;;4.37;;
32292;SDS011;43233;48.608;8.838;2022-12-26T08:49:36;6.80;;;5.23;;
32292;SDS011;43233;48.608;8.838;2022-12-26T08:52:01;4.70;;;4.20;;
32292;SDS011;43233;48.608;8.838;2022-12-26T08:54:27;4.63;;;4.23;;
32292;SDS011;43233;48.608;8.838;2022-12-26T08:56:53;5.93;;;5.20;;
32292;SDS011;43233;48.608;8.838;2022-12-26T08:59:19;5.10;;;4.47;;
32292;SDS011;43233;48.608;8.838;2022-12-26T09:01:45;6.17;;;4.23;;
32292;SDS011;43233;48.608;8.838;2022-12-26T09:04:10;5.67;;;4.80;;
32292;SDS011;43233;48.608;8.838;2022-12-26T09:06:36;4.93;;;4.43;;
32292;SDS011;43233;48.608;8.838;2022-12-26T09:09:03;4.80;;;4.30;;
32292;SDS011;43233;48.608;8.838;2022-12-26T09:11:30;5.23;;;4.13;;
32292;SDS011;43233;48.608;8.838;2022-12-26T09:13:57;4.57;;;4.17;;
32292;SDS011;43233;48.608;8.838;2022-12-26T09:16:28;7.37;;;4.40;;
32292;SDS011;43233;48.608;8.838;2022-12-26T09:18:59;5.63;;;5.00;;
32292;SDS011;43233;48.608;8.838;2022-12-26T09:21:26;5.90;;;4.80;;
32292;SDS011;43233;48.608;8.838;2022-12-26T09:23:56;4.63;;;4.23;;
32292;SDS011;43233;48.608;8.838;2022-12-26T09:26:23;5.43;;;4.47;;
32292;SDS011;43233;48.608;8.838;2022-12-26T09:28:49;4.17;;;3.77;;
32292;SDS011;43233;48.608;8.838;2022-12-26T09:31:16;5.17;;;4.67;;
32292;SDS011;43233;48.608;8.838;2022-12-26T09:33:46;6.07;;;5.00;;
32292;SDS011;43233;48.608;8.838;2022-12-26T09:36:13;13.97;;;5.57;;
32292;SDS011;43233;48.608;8.838;2022-12-26T09:38:41;5.10;;;4.70;;
32292;SDS011;43233;48.608;8.838;2022-12-26T09:49:49;9.13;;;7.17;;
32292;SDS011;43233;48.608;8.838;2022-12-26T09:52:22;8.03;;;6.00;;
32292;SDS011;43233;48.608;8.838;2022-12-26T09:54:59;20.63;;;14.03;;
32292;SDS011;43233;48.608;8.838;2022-12-26T09:57:38;10.80;;;8.80;;
32292;SDS011;43233;48.608;8.838;2022-12-26T10:00:15;5.73;;;5.13;;
32292;SDS011;43233;48.608;8.838;2022-12-26T10:02:44;4.90;;;4.33;;
32292;SDS011;43233;48.608;8.838;2022-12-26T10:05:16;4.60;;;4.20;;
32292;SDS011;43233;48.608;8.838;2022-12-26T10:07:45;5.13;;;3.20;;
32292;SDS011;43233;48.608;8.838;2022-12-26T10:24:00;6.60;;;3.50;;
32292;SDS011;43233;48.608;8.838;2022-12-26T10:26:37;4.10;;;3.70;;
32292;SDS011;43233;48.608;8.838;2022-12-26T10:29:11;3.47;;;3.17;;
32292;SDS011;43233;48.608;8.838;2022-12-26T10:31:41;3.50;;;3.20;;
32292;SDS011;43233;48.608;8.838;2022-12-26T10:39:55;2.67;;;2.47;;
32292;SDS011;43233;48.608;8.838;2022-12-26T10:42:29;3.13;;;2.83;;
32292;SDS011;43233;48.608;8.838;2022-12-26T10:44:57;3.53;;;3.23;;
32292;SDS011;43233;48.608;8.838;2022-12-26T10:47:29;6.57;;;5.70;;
32292;SDS011;43233;48.608;8.838;2022-12-26T10:50:01;6.10;;;5.37;;
32292;SDS011;43233;48.608;8.838;2022-12-26T10:52:30;3.97;;;3.53;;
32292;SDS011;43233;48.608;8.838;2022-12-26T10:54:59;3.00;;;2.80;;
32292;SDS011;43233;48.608;8.838;2022-12-26T10:57:28;3.40;;;2.70;;
32292;SDS011;43233;48.608;8.838;2022-12-26T10:59:58;4.60;;;2.77;;
32292;SDS011;43233;48.608;8.838;2022-12-26T11:04:56;1.70;;;1.63;;
32292;SDS011;43233;48.608;8.838;2022-12-26T11:07:22;1.60;;;1.50;;
32292;SDS011;43233;48.608;8.838;2022-12-26T11:09:50;2.47;;;1.93;;
32292;SDS011;43233;48.608;8.838;2022-12-26T11:12:44;1.33;;;1.33;;
32292;SDS011;43233;48.608;8.838;2022-12-26T11:17:54;6.23;;;2.00;;
32292;SDS011;43233;48.608;8.838;2022-12-26T11:20:34;2.87;;;2.03;;
32292;SDS011;43233;48.608;8.838;2022-12-26T11:25:49;1.30;;;1.30;;
32292;SDS011;43233;48.608;8.838;2022-12-26T11:28:28;1.33;;;1.33;;
32292;SDS011;43233;48.608;8.838;2022-12-26T11:30:57;1.97;;;1.87;;
32292;SDS011;43233;48.608;8.838;2022-12-26T11:33:26;1.47;;;1.40;;
32292;SDS011;43233;48.608;8.838;2022-12-26T11:38:29;2.13;;;2.03;;
32292;SDS011;43233;48.608;8.838;2022-12-26T11:41:06;4.37;;;3.20;;
32292;SDS011;43233;48.608;8.838;2022-12-26T11:49:28;1.67;;;1.60;;
32292;SDS011;43233;48.608;8.838;2022-12-26T11:51:55;2.30;;;2.20;;
32292;SDS011;43233;48.608;8.838;2022-12-26T11:54:24;1.63;;;1.53;;
32292;SDS011;43233;48.608;8.838;2022-12-26T11:57:27;1.63;;;1.53;;
32292;SDS011;43233;48.608;8.838;2022-12-26T12:00:13;1.30;;;1.20;;
32292;SDS011;43233;48.608;8.838;2022-12-26T12:02:41;6.70;;;3.57;;
32292;SDS011;43233;48.608;8.838;2022-12-26T12:05:14;1.97;;;1.87;;
32292;SDS011;43233;48.608;8.838;2022-12-26T12:15:58;1.30;;;1.30;;
32292;SDS011;43233;48.608;8.838;2022-12-26T12:32:20;3.23;;;3.03;;
32292;SDS011;43233;48.608;8.838;2022-12-26T12:40:46;2.77;;;2.57;;
32292;SDS011;43233;48.608;8.838;2022-12-26T13:08:14;2.00;;;1.90;;
32292;SDS011;43233;48.608;8.838;2022-12-26T13:10:46;2.10;;;2.00;;
32292;SDS011;43233;48.608;8.838;2022-12-26T13:16:19;1.40;;;1.40;;
32292;SDS011;43233;48.608;8.838;2022-12-26T13:18:50;1.70;;;1.60;;
32292;SDS011;43233;48.608;8.838;2022-12-26T13:21:20;1.43;;;1.43;;
32292;SDS011;43233;48.608;8.838;2022-12-26T13:26:40;1.80;;;1.70;;
32292;SDS011;43233;48.608;8.838;2022-12-26T13:31:43;1.30;;;1.30;;
32292;SDS011;43233;48.608;8.838;2022-12-26T13:34:13;1.90;;;1.80;;
32292;SDS011;43233;48.608;8.838;2022-12-26T13:36:43;1.63;;;1.47;;
32292;SDS011;43233;48.608;8.838;2022-12-26T13:41:48;1.40;;;1.40;;
32292;SDS011;43233;48.608;8.838;2022-12-26T13:44:34;1.87;;;1.77;;
32292;SDS011;43233;48.608;8.838;2022-12-26T13:47:00;2.60;;;2.40;;
32292;SDS011;43233;48.608;8.838;2022-12-26T13:49:36;3.00;;;2.80;;
32292;SDS011;43233;48.608;8.838;2022-12-26T14:00:00;1.80;;;1.70;;
32292;SDS011;43233;48.608;8.838;2022-12-26T14:05:31;2.50;;;2.00;;
32292;SDS011;43233;48.608;8.838;2022-12-26T14:08:04;1.80;;;1.70;;
32292;SDS011;43233;48.608;8.838;2022-12-26T14:18:57;1.97;;;1.87;;
32292;SDS011;43233;48.608;8.838;2022-12-26T14:24:16;1.70;;;1.70;;
32292;SDS011;43233;48.608;8.838;2022-12-26T14:29:47;2.30;;;2.10;;
32292;SDS011;43233;48.608;8.838;2022-12-26T14:33:04;2.40;;;2.30;;
32292;SDS011;43233;48.608;8.838;2022-12-26T14:35:30;3.33;;;2.00;;
32292;SDS011;43233;48.608;8.838;2022-12-26T14:38:45;1.80;;;1.70;;
32292;SDS011;43233;48.608;8.838;2022-12-26T14:42:09;2.07;;;1.60;;
32292;SDS011;43233;48.608;8.838;2022-12-26T14:45:00;1.97;;;1.87;;
32292;SDS011;43233;48.608;8.838;2022-12-26T14:47:40;1.27;;;1.27;;
32292;SDS011;43233;48.608;8.838;2022-12-26T14:58:25;1.33;;;1.27;;
32292;SDS011;43233;48.608;8.838;2022-12-26T15:01:42;1.80;;;1.70;;
32292;SDS011;43233;48.608;8.838;2022-12-26T15:31:31;2.20;;;2.10;;
32292;SDS011;43233;48.608;8.838;2022-12-26T15:39:27;2.07;;;1.47;;
32292;SDS011;43233;48.608;8.838;2022-12-26T15:47:46;3.00;;;2.10;;
32292;SDS011;43233;48.608;8.838;2022-12-26T15:50:43;1.97;;;1.87;;
32292;SDS011;43233;48.608;8.838;2022-12-26T16:01:10;2.23;;;2.13;;
32292;SDS011;43233;48.608;8.838;2022-12-26T16:03:45;1.53;;;1.43;;
32292;SDS011;43233;48.608;8.838;2022-12-26T16:06:26;1.63;;;1.53;;
32292;SDS011;43233;48.608;8.838;2022-12-26T16:09:20;5.73;;;5.13;;
32292;SDS011;43233;48.608;8.838;2022-12-26T16:12:13;2.37;;;2.27;;
32292;SDS011;43233;48.608;8.838;2022-12-26T16:14:49;3.43;;;2.10;;
32292;SDS011;43233;48.608;8.838;2022-12-26T16:17:24;2.17;;;1.97;;
32292;SDS011;43233;48.608;8.838;2022-12-26T16:19:50;2.40;;;1.70;;
32292;SDS011;43233;48.608;8.838;2022-12-26T16:22:25;1.60;;;1.60;;
32292;SDS011;43233;48.608;8.838;2022-12-26T16:25:08;1.60;;;1.50;;
32292;SDS011;43233;48.608;8.838;2022-12-26T16:27:37;2.20;;;2.10;;
32292;SDS011;43233;48.608;8.838;2022-12-26T16:30:13;1.50;;;1.40;;
32292;SDS011;43233;48.608;8.838;2022-12-26T16:32:42;4.63;;;1.97;;
32292;SDS011;43233;48.608;8.838;2022-12-26T16:35:21;1.60;;;1.40;;
32292;SDS011;43233;48.608;8.838;2022-12-26T16:37:54;1.37;;;1.27;;
32292;SDS011;43233;48.608;8.838;2022-12-26T16:40:23;1.47;;;1.37;;
32292;SDS011;43233;48.608;8.838;2022-12-26T16:43:03;3.83;;;2.30;;
32292;SDS011;43233;48.608;8.838;2022-12-26T16:45:51;2.03;;;1.93;;
32292;SDS011;43233;48.608;8.838;2022-12-26T16:48:19;1.70;;;1.60;;
32292;SDS011;43233;48.608;8.838;2022-12-26T16:51:03;2.10;;;1.87;;
32292;SDS011;43233;48.608;8.838;2022-12-26T16:59:17;1.30;;;1.30;;
32292;SDS011;43233;48.608;8.838;2022-12-26T17:01:49;2.90;;;1.50;;
32292;SDS011;43233;48.608;8.838;2022-12-26T17:04:18;4.73;;;2.40;;
32292;SDS011;43233;48.608;8.838;2022-12-26T17:06:51;1.73;;;1.63;;
32292;SDS011;43233;48.608;8.838;2022-12-26T17:09:24;1.80;;;1.50;;
32292;SDS011;43233;48.608;8.838;2022-12-26T17:14:27;5.17;;;3.20;;
32292;SDS011;43233;48.608;8.838;2022-12-26T17:17:06;4.03;;;3.10;;
32292;SDS011;43233;48.608;8.838;2022-12-26T17:20:25;5.53;;;3.30;;
32292;SDS011;43233;48.608;8.838;2022-12-26T17:22:47;3.20;;;2.67;;
32292;SDS011;43233;48.608;8.838;2022-12-26T17:27:41;7.70;;;5.20;;
32292;SDS011;43233;48.608;8.838;2022-12-26T17:30:25;2.90;;;2.40;;
32292;SDS011;43233;48.608;8.838;2022-12-26T17:33:00;2.43;;;2.33;;
32292;SDS011;43233;48.608;8.838;2022-12-26T17:35:29;1.90;;;1.80;;
32292;SDS011;43233;48.608;8.838;2022-12-26T17:37:59;2.50;;;2.30;;
32292;SDS011;43233;48.608;8.838;2022-12-26T17:40:28;2.90;;;2.00;;
32292;SDS011;43233;48.608;8.838;2022-12-26T17:45:37;2.03;;;1.93;;
32292;SDS011;43233;48.608;8.838;2022-12-26T17:48:04;1.80;;;1.70;;
32292;SDS011;43233;48.608;8.838;2022-12-26T17:50:32;1.90;;;1.80;;
32292;SDS011;43233;48.608;8.838;2022-12-26T17:55:54;1.60;;;1.50;;
32292;SDS011;43233;48.608;8.838;2022-12-26T17:58:21;1.83;;;1.73;;
32292;SDS011;43233;48.608;8.838;2022-12-26T18:00:47;5.17;;;4.50;;
32292;SDS011;43233;48.608;8.838;2022-12-26T18:03:14;7.00;;;5.60;;
32292;SDS011;43233;48.608;8.838;2022-12-26T18:05:40;2.50;;;2.30;;
32292;SDS011;43233;48.608;8.838;2022-12-26T18:08:06;1.30;;;1.20;;
32292;SDS011;43233;48.608;8.838;2022-12-26T18:10:33;2.90;;;1.10;;
32292;SDS011;43233;48.608;8.838;2022-12-26T18:13:00;1.07;;;1.07;;
32292;SDS011;43233;48.608;8.838;2022-12-26T18:15:26;1.20;;;1.10;;
32292;SDS011;43233;48.608;8.838;2022-12-26T18:17:54;1.20;;;1.10;;
32292;SDS011;43233;48.608;8.838;2022-12-26T18:20:22;1.17;;;1.07;;
32292;SDS011;43233;48.608;8.838;2022-12-26T18:22:50;1.23;;;1.13;;
32292;SDS011;43233;48.608;8.838;2022-12-26T18:25:18;2.93;;;1.10;;
32292;SDS011;43233;48.608;8.838;2022-12-26T18:27:45;9.73;;;6.00;;
32292;SDS011;43233;48.608;8.838;2022-12-26T18:32:42;5.33;;;3.63;;
32292;SDS011;43233;48.608;8.838;2022-12-26T18:35:09;1.20;;;1.20;;
32292;SDS011;43233;48.608;8.838;2022-12-26T18:37:34;3.37;;;2.33;;
32292;SDS011;43233;48.608;8.838;2022-12-26T18:40:00;1.90;;;1.70;;
32292;SDS011;43233;48.608;8.838;2022-12-26T18:42:26;1.00;;;1.00;;
32292;SDS011;43233;48.608;8.838;2022-12-26T18:44:52;1.90;;;1.20;;
32292;SDS011;43233;48.608;8.838;2022-12-26T18:47:18;1.13;;;1.13;;
32292;SDS011;43233;48.608;8.838;2022-12-26T18:49:45;1.17;;;1.17;;
32292;SDS011;43233;48.608;8.838;2022-12-26T18:52:12;1.03;;;1.03;;
32292;SDS011;43233;48.608;8.838;2022-12-26T18:54:38;2.67;;;2.47;;
32292;SDS011;43233;48.608;8.838;2022-12-26T18:57:05;1.03;;;1.03;;
32292;SDS011;43233;48.608;8.838;2022-12-26T18:59:33;1.23;;;1.23;;
32292;SDS011;43233;48.608;8.838;2022-12-26T19:01:59;2.40;;;1.00;;
32292;SDS011;43233;48.608;8.838;2022-12-26T19:04:24;6.50;;;1.20;;
32292;SDS011;43233;48.608;8.838;2022-12-26T19:06:50;0.90;;;0.90;;
32292;SDS011;43233;48.608;8.838;2022-12-26T19:09:17;1.73;;;1.60;;
32292;SDS011;43233;48.608;8.838;2022-12-26T19:11:43;1.50;;;1.40;;
32292;SDS011;43233;48.608;8.838;2022-12-26T19:14:15;2.10;;;1.00;;
32292;SDS011;43233;48.608;8.838;2022-12-26T19:16:43;0.90;;;0.90;;
32292;SDS011;43233;48.608;8.838;2022-12-26T19:19:09;11.27;;;4.67;;